createdAt,value
2023-04-12T00:02:21.120Z,2.97
2023-04-12T00:04:55.326Z,3.50
2023-04-12T00:07:24.793Z,3.45
2023-04-12T00:12:19.512Z,3.00
2023-04-12T00:14:46.707Z,3.63
2023-04-12T00:17:14.170Z,3.83
2023-04-12T00:19:44.814Z,3.85
2023-04-12T00:22:12.308Z,3.25
2023-04-12T00:24:41.774Z,3.45
2023-04-12T00:27:09.186Z,3.47
2023-04-12T00:29:36.229Z,3.50
2023-04-12T00:32:05.553Z,3.47
2023-04-12T00:37:01.250Z,3.67
2023-04-12T00:39:28.241Z,3.55
2023-04-12T00:41:57.105Z,3.97
2023-04-12T00:44:24.186Z,3.70
2023-04-12T00:46:51.816Z,3.88
2023-04-12T00:49:18.967Z,3.13
2023-04-12T00:51:46.636Z,3.10
2023-04-12T00:54:14.194Z,3.75
2023-04-12T00:56:41.726Z,3.25
2023-04-12T00:59:10.372Z,4.00
2023-04-12T01:01:41.125Z,3.72
2023-04-12T01:04:09.357Z,3.80
2023-04-12T01:06:50.197Z,3.67
2023-04-12T01:09:23.912Z,3.50
2023-04-12T01:12:02.382Z,3.72
2023-04-12T01:14:39.857Z,3.25
2023-04-12T01:17:14.270Z,3.60
2023-04-12T01:19:57.925Z,3.55
2023-04-12T01:22:46.379Z,3.53
2023-04-12T01:25:32.493Z,3.42
2023-04-12T01:28:03.834Z,3.20
2023-04-12T01:30:32.884Z,3.40
2023-04-12T01:33:03.551Z,3.38
2023-04-12T01:35:33.951Z,3.20
2023-04-12T01:38:03.270Z,3.30
2023-04-12T01:40:31.417Z,3.00
2023-04-12T01:43:07.591Z,3.42
2023-04-12T01:45:34.801Z,3.17
2023-04-12T01:48:04.281Z,3.30
2023-04-12T01:50:39.958Z,3.10
2023-04-12T01:53:14.061Z,3.13
2023-04-12T01:55:45.939Z,3.03
2023-04-12T01:58:17.604Z,2.90
2023-04-12T02:00:46.077Z,3.08
2023-04-12T02:03:14.214Z,3.17
2023-04-12T02:05:41.777Z,3.22
2023-04-12T02:08:09.123Z,3.00
2023-04-12T02:10:39.735Z,3.47
2023-04-12T02:13:06.952Z,3.00
2023-04-12T02:15:37.229Z,3.05
2023-04-12T02:18:04.827Z,3.30
2023-04-12T02:20:32.371Z,3.60
2023-04-12T02:23:00.544Z,3.30
2023-04-12T02:25:27.669Z,3.53
2023-04-12T02:27:55.024Z,2.85
2023-04-12T02:30:23.083Z,3.53
2023-04-12T02:32:53.336Z,3.42
2023-04-12T02:35:20.709Z,3.40
2023-04-12T02:37:48.574Z,3.45
2023-04-12T02:40:16.126Z,3.72
2023-04-12T02:42:44.021Z,3.05
2023-04-12T02:45:11.886Z,3.65
2023-04-12T02:47:40.794Z,3.42
2023-04-12T02:50:09.705Z,3.92
2023-04-12T02:55:04.165Z,3.30
2023-04-12T02:57:31.380Z,3.60
2023-04-12T02:59:58.561Z,3.15
2023-04-12T03:02:26.284Z,3.47
2023-04-12T03:04:54.929Z,3.40
2023-04-12T03:07:23.814Z,3.00
2023-04-12T03:09:51.642Z,3.17
2023-04-12T03:12:19.054Z,3.17
2023-04-12T03:14:46.081Z,3.20
2023-04-12T03:17:13.421Z,3.35
2023-04-12T03:19:40.558Z,3.35
2023-04-12T03:22:07.880Z,3.30
2023-04-12T03:24:37.254Z,3.30
2023-04-12T03:27:05.697Z,3.33
2023-04-12T03:29:32.666Z,3.00
2023-04-12T03:32:00.041Z,3.15
2023-04-12T03:34:32.376Z,3.22
2023-04-12T03:37:01.052Z,3.05
2023-04-12T03:39:28.556Z,3.20
2023-04-12T03:41:57.176Z,3.25
2023-04-12T03:44:26.229Z,3.30
2023-04-12T03:46:54.100Z,4.47
2023-04-12T03:49:21.365Z,4.05
2023-04-12T03:51:51.000Z,2.78
2023-04-12T03:54:18.060Z,2.45
2023-04-12T03:56:46.393Z,2.95
2023-04-12T03:59:14.932Z,2.65
2023-04-12T04:01:43.440Z,2.92
2023-04-12T04:04:10.887Z,2.60
2023-04-12T04:06:38.835Z,2.53
2023-04-12T04:09:06.892Z,2.45
2023-04-12T04:11:34.152Z,2.88
2023-04-12T04:14:01.476Z,3.35
2023-04-12T04:16:31.010Z,2.53
2023-04-12T04:18:57.993Z,2.83
2023-04-12T04:21:26.569Z,3.33
2023-04-12T04:23:54.168Z,4.75
2023-04-12T04:26:33.439Z,3.55
2023-04-12T04:31:36.625Z,2.60
2023-04-12T04:34:05.494Z,2.20
2023-04-12T04:36:35.441Z,2.35
2023-04-12T04:39:03.510Z,2.50
2023-04-12T04:41:34.427Z,2.40
2023-04-12T04:44:01.543Z,1.98
2023-04-12T04:46:30.561Z,2.15
2023-04-12T04:49:00.167Z,1.90
2023-04-12T04:51:27.603Z,1.80
2023-04-12T04:53:54.891Z,1.95
2023-04-12T04:56:23.369Z,1.98
2023-04-12T04:58:50.755Z,1.63
2023-04-12T05:01:18.186Z,2.40
2023-04-12T05:03:45.382Z,1.67
2023-04-12T05:06:14.090Z,1.60
2023-04-12T05:08:41.164Z,1.77
2023-04-12T05:11:08.838Z,1.98
2023-04-12T05:13:35.996Z,1.90
2023-04-12T05:16:08.121Z,1.65
2023-04-12T05:18:35.871Z,1.60
2023-04-12T05:21:04.002Z,2.13
2023-04-12T05:23:34.352Z,2.00
2023-04-12T05:26:01.849Z,1.83
2023-04-12T05:28:29.174Z,1.88
2023-04-12T05:30:56.793Z,1.63
2023-04-12T05:33:23.894Z,2.92
2023-04-12T05:35:51.157Z,2.50
2023-04-12T05:38:19.183Z,2.05
2023-04-12T05:40:50.062Z,2.50
2023-04-12T05:43:17.823Z,2.22
2023-04-12T05:45:47.644Z,2.30
2023-04-12T05:48:14.795Z,2.38
2023-04-12T05:50:42.342Z,2.30
2023-04-12T05:53:10.715Z,2.30
2023-04-12T05:55:38.327Z,2.53
2023-04-12T05:58:07.160Z,2.50
2023-04-12T06:00:37.048Z,2.60
2023-04-12T06:03:04.831Z,2.30
2023-04-12T06:05:34.341Z,2.38
2023-04-12T06:10:29.448Z,2.50
2023-04-12T06:12:56.455Z,2.78
2023-04-12T06:15:25.344Z,2.40
2023-04-12T06:17:52.712Z,2.53
2023-04-12T06:20:20.519Z,2.60
2023-04-12T06:22:47.554Z,2.38
2023-04-12T06:25:16.496Z,2.47
2023-04-12T06:27:44.019Z,2.38
2023-04-12T06:30:12.179Z,2.15
2023-04-12T06:32:41.235Z,2.65
2023-04-12T06:35:08.905Z,2.72
2023-04-12T06:37:36.191Z,2.13
2023-04-12T06:40:03.939Z,2.88
2023-04-12T06:42:31.356Z,2.50
2023-04-12T06:44:58.715Z,2.63
2023-04-12T06:47:25.769Z,2.60
2023-04-12T06:49:56.797Z,2.45
2023-04-12T06:52:24.428Z,2.50
2023-04-12T06:54:51.659Z,3.75
2023-04-12T06:57:18.632Z,2.80
2023-04-12T06:59:45.944Z,2.40
2023-04-12T07:02:13.081Z,2.50
2023-04-12T07:04:40.604Z,2.42
2023-04-12T07:07:10.291Z,2.70
2023-04-12T07:09:37.503Z,2.40
2023-04-12T07:12:04.585Z,3.47
2023-04-12T07:14:31.977Z,2.90
2023-04-12T07:16:59.009Z,2.60
2023-04-12T07:19:26.621Z,2.50
2023-04-12T07:21:53.771Z,2.10
2023-04-12T07:24:22.612Z,2.38
2023-04-12T07:26:49.723Z,2.03
2023-04-12T07:29:17.426Z,2.20
2023-04-12T07:31:45.702Z,2.05
2023-04-12T07:34:13.202Z,2.35
2023-04-12T07:36:40.487Z,2.65
2023-04-12T07:39:11.946Z,2.42
2023-04-12T07:41:42.287Z,2.08
2023-04-12T07:44:09.598Z,2.40
2023-04-12T07:46:36.541Z,1.83
2023-04-12T07:49:04.342Z,2.78
2023-04-12T07:51:31.740Z,2.08
2023-04-12T07:53:59.510Z,2.10
2023-04-12T07:56:27.140Z,2.38
2023-04-12T07:58:56.436Z,2.35
2023-04-12T08:01:23.783Z,2.00
2023-04-12T08:03:51.933Z,1.90
2023-04-12T08:06:18.911Z,1.58
2023-04-12T08:08:46.418Z,1.55
2023-04-12T08:11:13.426Z,1.52
2023-04-12T08:13:40.847Z,1.65
2023-04-12T08:16:09.596Z,1.80
2023-04-12T08:18:37.090Z,1.80
2023-04-12T08:21:04.928Z,1.75
2023-04-12T08:23:32.314Z,2.23
2023-04-12T08:26:05.528Z,2.95
2023-04-12T08:28:33.536Z,2.80
2023-04-12T08:31:03.135Z,4.75
2023-04-12T08:33:31.968Z,2.97
2023-04-12T08:35:59.423Z,7.20
2023-04-12T08:38:41.426Z,7.88
2023-04-12T08:41:13.518Z,3.08
2023-04-12T08:46:15.729Z,3.08
2023-04-12T08:48:47.245Z,2.00
2023-04-12T08:51:16.600Z,2.00
2023-04-12T08:53:44.401Z,1.70
2023-04-12T08:56:12.676Z,1.60
2023-04-12T08:58:41.564Z,1.20
2023-04-12T09:01:14.134Z,1.23
2023-04-12T09:03:42.638Z,1.30
2023-04-12T09:06:12.240Z,1.55
2023-04-12T09:08:52.149Z,1.45
2023-04-12T09:11:24.475Z,1.48
2023-04-12T09:13:52.076Z,1.73
2023-04-12T09:16:34.231Z,1.63
2023-04-12T09:19:03.216Z,1.55
2023-04-12T09:21:31.934Z,1.90
2023-04-12T09:24:03.878Z,1.88
2023-04-12T09:26:31.577Z,1.60
2023-04-12T09:28:58.928Z,1.60
2023-04-12T09:31:26.834Z,1.40
2023-04-12T09:34:06.783Z,1.52
2023-04-12T09:36:39.910Z,1.23
2023-04-12T09:39:08.145Z,1.60
2023-04-12T09:41:35.182Z,2.10
2023-04-12T09:44:03.932Z,1.92
2023-04-12T09:46:31.141Z,1.90
2023-04-12T09:49:00.276Z,1.60
2023-04-12T09:51:29.095Z,2.10
2023-04-12T09:54:00.717Z,2.22
2023-04-12T09:56:29.872Z,1.80
2023-04-12T09:59:02.565Z,2.00
2023-04-12T10:01:33.486Z,1.70
2023-04-12T10:04:02.673Z,1.90
2023-04-12T10:06:31.316Z,1.48
2023-04-12T10:09:04.372Z,1.50
2023-04-12T10:11:32.279Z,1.42
2023-04-12T10:14:02.297Z,1.60
2023-04-12T10:16:31.125Z,1.40
2023-04-12T10:19:01.849Z,1.17
2023-04-12T10:21:29.599Z,1.27
2023-04-12T10:23:57.682Z,1.17
2023-04-12T10:26:26.513Z,1.25
2023-04-12T10:31:35.766Z,1.35
2023-04-12T10:34:03.294Z,1.50
2023-04-12T10:37:00.957Z,1.40
2023-04-12T10:39:40.232Z,1.80
2023-04-12T10:42:23.587Z,1.50
2023-04-12T10:44:52.278Z,3.33
2023-04-12T10:47:59.074Z,2.50
2023-04-12T10:50:28.190Z,1.70
2023-04-12T10:53:25.186Z,2.03
2023-04-12T10:55:53.065Z,2.00
2023-04-12T10:58:56.604Z,1.70
2023-04-12T11:01:24.852Z,1.50
2023-04-12T11:04:16.690Z,1.42
2023-04-12T11:06:59.607Z,1.33
2023-04-12T11:09:28.245Z,1.60
2023-04-12T11:12:11.473Z,1.33
2023-04-12T11:14:45.759Z,1.10
2023-04-12T11:17:26.222Z,1.45
2023-04-12T11:19:59.059Z,1.60
2023-04-12T11:22:29.119Z,1.08
2023-04-12T11:24:58.512Z,1.20
2023-04-12T11:27:27.500Z,1.20
2023-04-12T11:29:57.424Z,1.23
2023-04-12T11:32:27.066Z,1.40
2023-04-12T11:34:56.564Z,2.17
2023-04-12T11:37:26.893Z,2.20
2023-04-12T11:39:57.608Z,1.40
2023-04-12T11:42:26.366Z,1.75
2023-04-12T11:44:57.114Z,1.73
2023-04-12T11:47:28.300Z,1.50
2023-04-12T11:52:30.188Z,3.33
2023-04-12T11:55:00.662Z,1.50
2023-04-12T11:57:29.279Z,1.40
2023-04-12T12:00:01.156Z,1.23
2023-04-12T12:02:40.696Z,1.13
2023-04-12T12:05:13.791Z,1.25
2023-04-12T12:07:41.366Z,1.70
2023-04-12T12:10:09.705Z,1.20
2023-04-12T12:12:37.059Z,1.17
2023-04-12T12:15:04.531Z,1.75
2023-04-12T12:17:36.727Z,2.13
2023-04-12T12:20:04.770Z,1.60
2023-04-12T12:22:32.117Z,1.20
2023-04-12T12:25:00.536Z,1.55
2023-04-12T12:27:35.566Z,1.30
2023-04-12T12:30:04.361Z,1.65
2023-04-12T12:32:37.416Z,1.70
2023-04-12T12:35:09.415Z,1.73
2023-04-12T12:37:36.941Z,1.63
2023-04-12T12:40:16.283Z,1.42
2023-04-12T12:42:48.702Z,1.60
2023-04-12T12:45:18.783Z,1.40
2023-04-12T12:47:52.084Z,1.60
2023-04-12T12:50:22.057Z,1.40
2023-04-12T12:52:52.324Z,1.40
2023-04-12T12:55:21.391Z,1.52
2023-04-12T12:58:02.060Z,1.60
2023-04-12T13:00:33.779Z,1.40
2023-04-12T13:03:04.253Z,1.23
2023-04-12T13:05:31.742Z,1.70
2023-04-12T13:07:59.060Z,1.90
2023-04-12T13:10:27.451Z,1.50
2023-04-12T13:12:54.673Z,1.90
2023-04-12T13:15:23.919Z,3.20
2023-04-12T13:17:53.099Z,1.88
2023-04-12T13:20:22.270Z,1.50
2023-04-12T13:22:50.268Z,1.52
2023-04-12T13:25:19.788Z,1.60
2023-04-12T13:27:47.785Z,1.67
2023-04-12T13:30:15.768Z,2.15
2023-04-12T13:32:44.816Z,1.55
2023-04-12T13:35:12.448Z,1.30
2023-04-12T13:37:42.090Z,1.50
2023-04-12T13:40:10.002Z,1.52
2023-04-12T13:42:37.368Z,1.70
2023-04-12T13:45:05.375Z,1.65
2023-04-12T13:47:33.835Z,1.95
2023-04-12T13:50:01.365Z,1.33
2023-04-12T13:52:28.689Z,1.80
2023-04-12T13:54:57.918Z,1.30
2023-04-12T13:57:25.253Z,1.40
2023-04-12T13:59:52.488Z,1.50
2023-04-12T14:02:19.919Z,1.30
2023-04-12T14:04:55.174Z,1.50
2023-04-12T14:07:22.867Z,1.35
2023-04-12T14:09:50.525Z,1.10
2023-04-12T14:12:19.050Z,1.30
2023-04-12T14:14:46.629Z,1.70
2023-04-12T14:17:13.875Z,1.90
2023-04-12T14:19:40.847Z,1.90
2023-04-12T14:22:08.407Z,1.60
2023-04-12T14:24:35.914Z,1.70
2023-04-12T14:27:04.604Z,2.25
2023-04-12T14:29:33.085Z,2.08
2023-04-12T14:34:27.237Z,1.75
2023-04-12T14:36:56.361Z,1.80
2023-04-12T14:41:51.948Z,2.20
2023-04-12T14:44:20.409Z,1.77
2023-04-12T14:46:49.938Z,1.95
2023-04-12T14:49:16.969Z,2.20
2023-04-12T14:51:44.217Z,1.60
2023-04-12T14:54:11.265Z,1.55
2023-04-12T14:56:45.888Z,1.50
2023-04-12T14:59:17.163Z,1.70
2023-04-12T15:01:44.929Z,1.63
2023-04-12T15:04:13.902Z,1.58
2023-04-12T15:06:44.830Z,1.50
2023-04-12T15:09:14.012Z,1.80
2023-04-12T15:11:47.050Z,1.90
2023-04-12T15:14:19.969Z,1.77
2023-04-12T15:16:49.204Z,2.03
2023-04-12T15:19:21.954Z,2.17
2023-04-12T15:21:51.168Z,1.33
2023-04-12T15:24:19.807Z,1.45
2023-04-12T15:26:48.305Z,1.50
2023-04-12T15:29:16.534Z,1.50
2023-04-12T15:31:44.397Z,1.40
2023-04-12T15:34:11.605Z,1.40
2023-04-12T15:36:41.122Z,1.13
2023-04-12T15:39:08.313Z,1.20
2023-04-12T15:41:38.020Z,1.50
2023-04-12T15:44:05.596Z,1.30
2023-04-12T15:46:32.862Z,1.38
2023-04-12T15:49:00.222Z,1.50
2023-04-12T15:51:28.189Z,1.58
2023-04-12T15:53:57.410Z,1.50
2023-04-12T15:56:25.519Z,1.40
2023-04-12T15:58:53.042Z,1.30
2023-04-12T16:01:20.528Z,1.40
2023-04-12T16:03:49.023Z,1.20
2023-04-12T16:08:48.056Z,1.25
2023-04-12T16:11:18.508Z,1.38
2023-04-12T16:13:48.642Z,1.42
2023-04-12T16:16:17.834Z,1.55
2023-04-12T16:21:16.871Z,1.70
2023-04-12T16:23:44.671Z,2.00
2023-04-12T16:26:13.243Z,2.57
2023-04-12T16:28:43.610Z,1.95
2023-04-12T16:31:11.211Z,2.25
2023-04-12T16:33:39.117Z,1.73
2023-04-12T16:36:07.217Z,1.70
2023-04-12T16:38:34.695Z,1.88
2023-04-12T16:41:02.393Z,2.00
2023-04-12T16:43:30.124Z,2.50
2023-04-12T16:46:07.252Z,2.80
2023-04-12T16:48:35.985Z,2.30
2023-04-12T16:53:32.250Z,1.98
2023-04-12T16:56:02.543Z,2.10
2023-04-12T16:58:30.243Z,2.17
2023-04-12T17:01:01.044Z,2.60
2023-04-12T17:03:28.841Z,2.22
2023-04-12T17:05:56.938Z,2.40
2023-04-12T17:08:24.081Z,3.10
2023-04-12T17:10:51.592Z,5.28
2023-04-12T17:13:20.418Z,10.15
2023-04-12T17:15:48.525Z,5.80
2023-04-12T17:18:17.021Z,5.78
2023-04-12T17:23:12.451Z,7.57
2023-04-12T17:25:40.628Z,11.02
2023-04-12T17:28:27.375Z,11.30
2023-04-12T17:30:56.589Z,4.68
2023-04-12T17:33:27.964Z,14.05
2023-04-12T17:35:58.210Z,14.10
2023-04-12T17:38:26.615Z,14.38
2023-04-12T17:40:55.827Z,17.05
2023-04-12T17:43:28.125Z,15.10
2023-04-12T17:45:55.615Z,10.63
2023-04-12T17:48:27.107Z,8.07
2023-04-12T17:50:55.214Z,10.68
2023-04-12T17:53:22.337Z,11.95
2023-04-12T17:55:50.837Z,11.07
2023-04-12T17:58:18.945Z,10.07
2023-04-12T18:00:51.292Z,7.57
2023-04-12T18:03:21.695Z,7.15
2023-04-12T18:05:51.085Z,6.45
2023-04-12T18:08:18.408Z,6.85
2023-04-12T18:10:46.663Z,7.05
2023-04-12T18:13:14.214Z,8.90
2023-04-12T18:15:42.094Z,8.32
2023-04-12T18:18:09.502Z,9.32
2023-04-12T18:20:37.141Z,10.40
2023-04-12T18:23:07.112Z,14.48
2023-04-12T18:25:34.647Z,10.00
2023-04-12T18:28:02.523Z,9.70
2023-04-12T18:30:30.863Z,16.60
2023-04-12T18:32:58.315Z,13.82
2023-04-12T18:35:25.939Z,13.70
2023-04-12T18:37:53.197Z,14.88
2023-04-12T18:40:23.407Z,13.25
2023-04-12T18:42:50.723Z,12.75
2023-04-12T18:45:19.984Z,12.95
2023-04-12T18:47:47.319Z,12.20
2023-04-12T18:50:16.086Z,12.77
2023-04-12T18:52:43.697Z,12.35
2023-04-12T18:55:11.616Z,12.93
2023-04-12T18:57:40.338Z,12.65
2023-04-12T19:00:14.379Z,13.93
2023-04-12T19:02:43.701Z,13.65
2023-04-12T19:05:11.685Z,10.73
2023-04-12T19:07:39.058Z,10.82
2023-04-12T19:10:08.500Z,9.07
2023-04-12T19:12:35.753Z,8.82
2023-04-12T19:15:07.184Z,8.88
2023-04-12T19:17:38.853Z,9.32
2023-04-12T19:20:07.725Z,8.93
2023-04-12T19:22:35.543Z,9.38
2023-04-12T19:25:02.920Z,8.38
2023-04-12T19:27:30.004Z,9.48
2023-04-12T19:29:58.238Z,12.32
2023-04-12T19:32:28.135Z,18.95
2023-04-12T19:34:56.155Z,16.45
2023-04-12T19:37:23.977Z,14.73
2023-04-12T19:39:51.593Z,14.80
2023-04-12T19:42:18.676Z,11.02
2023-04-12T19:44:46.256Z,12.13
2023-04-12T19:47:13.757Z,17.30
2023-04-12T19:49:43.735Z,15.52
2023-04-12T19:52:11.423Z,12.75
2023-04-12T19:54:40.032Z,13.32
2023-04-12T19:57:07.558Z,12.73
2023-04-12T19:59:36.750Z,10.90
2023-04-12T20:04:34.244Z,11.05
2023-04-12T20:07:03.211Z,13.52
2023-04-12T20:09:30.525Z,11.27
2023-04-12T20:11:58.378Z,9.40
2023-04-12T20:14:27.208Z,9.95
2023-04-12T20:16:56.020Z,10.30
2023-04-12T20:21:50.005Z,10.85
2023-04-12T20:24:18.720Z,10.00
2023-04-12T20:26:47.367Z,12.35
2023-04-12T20:31:42.168Z,12.02
2023-04-12T20:34:09.483Z,13.68
2023-04-12T20:36:38.867Z,12.45
2023-04-12T20:39:06.153Z,12.27
2023-04-12T20:41:38.161Z,19.00
2023-04-12T20:44:05.526Z,15.77
2023-04-12T20:46:36.750Z,24.85
2023-04-12T20:49:06.639Z,12.70
2023-04-12T20:51:34.247Z,12.48
2023-04-12T20:54:02.235Z,11.60
2023-04-12T20:56:29.267Z,11.82
2023-04-12T20:59:00.667Z,12.68
2023-04-12T21:01:28.190Z,13.35
2023-04-12T21:03:59.601Z,16.25
2023-04-12T21:06:27.750Z,13.55
2023-04-12T21:08:55.150Z,12.90
2023-04-12T21:11:22.258Z,16.33
2023-04-12T21:13:49.681Z,19.77
2023-04-12T21:16:18.050Z,13.07
2023-04-12T21:18:45.621Z,10.68
2023-04-12T21:21:12.869Z,13.48
2023-04-12T21:23:41.034Z,10.80
2023-04-12T21:26:07.974Z,9.80
2023-04-12T21:28:35.341Z,9.23
2023-04-12T21:31:04.001Z,9.55
2023-04-12T21:33:33.787Z,9.73
2023-04-12T21:36:01.439Z,9.40
2023-04-12T21:38:28.702Z,11.00
2023-04-12T21:40:58.785Z,10.70
2023-04-12T21:43:26.188Z,10.52
2023-04-12T21:45:54.663Z,10.98
2023-04-12T21:48:22.124Z,10.52
2023-04-12T21:50:50.498Z,11.40
2023-04-12T21:53:17.733Z,10.63
2023-04-12T21:55:44.686Z,11.95
2023-04-12T21:58:12.018Z,12.55
2023-04-12T22:00:38.992Z,12.45
2023-04-12T22:03:06.565Z,13.20
2023-04-12T22:05:35.893Z,12.43
2023-04-12T22:08:04.781Z,13.38
2023-04-12T22:10:34.482Z,13.52
2023-04-12T22:13:02.514Z,10.45
2023-04-12T22:15:29.959Z,10.95
2023-04-12T22:17:57.593Z,10.30
2023-04-12T22:20:25.045Z,11.18
2023-04-12T22:22:52.354Z,12.02
2023-04-12T22:25:22.207Z,12.52
2023-04-12T22:27:49.567Z,12.77
2023-04-12T22:30:16.591Z,12.55
2023-04-12T22:32:43.947Z,11.30
2023-04-12T22:35:11.299Z,10.23
2023-04-12T22:37:39.165Z,10.30
2023-04-12T22:40:13.760Z,11.77
2023-04-12T22:42:48.957Z,10.15
2023-04-12T22:45:16.910Z,10.65
2023-04-12T22:47:44.671Z,11.03
2023-04-12T22:50:12.909Z,10.55
2023-04-12T22:52:40.522Z,10.93
2023-04-12T22:55:09.435Z,10.90
2023-04-12T23:00:06.864Z,10.38
2023-04-12T23:02:34.819Z,10.60
2023-04-12T23:05:02.782Z,10.20
2023-04-12T23:07:31.238Z,11.10
2023-04-12T23:09:58.224Z,10.98
2023-04-12T23:12:25.514Z,9.85
2023-04-12T23:14:55.744Z,10.15
2023-04-12T23:17:26.554Z,9.88
2023-04-12T23:19:53.970Z,9.75
2023-04-12T23:22:48.569Z,10.18
2023-04-12T23:25:24.951Z,9.48
2023-04-12T23:27:52.284Z,10.30
2023-04-12T23:30:20.215Z,10.35
2023-04-12T23:32:49.133Z,10.13
2023-04-12T23:35:16.323Z,9.32
2023-04-12T23:37:43.443Z,10.70
2023-04-12T23:40:14.717Z,10.23
2023-04-12T23:42:43.443Z,10.93
2023-04-12T23:45:12.049Z,10.85
2023-04-12T23:47:40.599Z,11.15
2023-04-12T23:50:09.959Z,10.00
2023-04-12T23:52:37.175Z,9.77
2023-04-12T23:55:04.946Z,10.13
2023-04-12T23:57:32.396Z,9.60
2023-04-12T23:59:59.506Z,9.77
